createdAt,value
2023-04-10T00:01:09.408Z,97662.50
2023-04-10T00:03:37.037Z,97656.88
2023-04-10T00:06:03.614Z,97661.84
2023-04-10T00:08:31.148Z,97665.50
2023-04-10T00:10:57.557Z,97656.66
2023-04-10T00:13:23.963Z,97662.72
2023-04-10T00:15:50.840Z,97658.84
2023-04-10T00:18:17.351Z,97656.34
2023-04-10T00:20:44.800Z,97651.28
2023-04-10T00:23:11.139Z,97653.66
2023-04-10T00:25:37.482Z,97650.22
2023-04-10T00:28:03.826Z,97656.69
2023-04-10T00:30:30.140Z,97655.22
2023-04-10T00:32:56.546Z,97645.03
2023-04-10T00:35:22.943Z,97642.53
2023-04-10T00:37:50.317Z,97639.63
2023-04-10T00:40:19.825Z,97635.28
2023-04-10T00:42:46.161Z,97632.38
2023-04-10T00:45:12.497Z,97630.50
2023-04-10T00:47:38.979Z,97628.22
2023-04-10T00:50:06.704Z,97628.97
2023-04-10T00:52:33.161Z,97618.47
2023-04-10T00:54:59.496Z,97627.72
2023-04-10T00:57:27.111Z,97625.31
2023-04-10T00:59:53.961Z,97619.06
2023-04-10T01:02:20.553Z,97623.72
2023-04-10T01:04:48.103Z,97618.84
2023-04-10T01:07:27.842Z,97618.31
2023-04-10T01:10:05.187Z,97617.63
2023-04-10T01:12:34.259Z,97620.25
2023-04-10T01:15:02.265Z,97625.03
2023-04-10T01:17:35.558Z,97623.53
2023-04-10T01:20:04.388Z,97617.97
2023-04-10T01:23:00.459Z,97624.41
2023-04-10T01:25:29.679Z,97618.66
2023-04-10T01:28:11.721Z,97610.72
2023-04-10T01:30:38.395Z,97624.50
2023-04-10T01:33:06.929Z,97619.03
2023-04-10T01:35:33.774Z,97621.03
2023-04-10T01:38:01.380Z,97615.25
2023-04-10T01:40:29.370Z,97613.41
2023-04-10T01:42:56.702Z,97615.25
2023-04-10T01:45:27.789Z,97615.06
2023-04-10T01:47:54.806Z,97620.31
2023-04-10T01:50:23.476Z,97606.75
2023-04-10T01:52:51.189Z,97606.03
2023-04-10T01:55:17.722Z,97603.38
2023-04-10T01:57:45.682Z,97600.16
2023-04-10T02:00:12.831Z,97601.88
2023-04-10T02:02:39.295Z,97602.41
2023-04-10T02:05:05.980Z,97596.16
2023-04-10T02:07:32.320Z,97599.38
2023-04-10T02:10:02.565Z,97592.66
2023-04-10T02:12:30.946Z,97594.66
2023-04-10T02:15:01.889Z,97603.00
2023-04-10T02:17:31.451Z,97601.97
2023-04-10T02:19:58.577Z,97601.03
2023-04-10T02:22:25.735Z,97606.13
2023-04-10T02:24:52.674Z,97603.47
2023-04-10T02:27:32.325Z,97605.63
2023-04-10T02:29:59.038Z,97605.22
2023-04-10T02:32:25.700Z,97608.78
2023-04-10T02:34:54.187Z,97612.50
2023-04-10T02:37:20.641Z,97607.06
2023-04-10T02:39:47.017Z,97610.41
2023-04-10T02:42:13.354Z,97617.59
2023-04-10T02:44:39.699Z,97615.50
2023-04-10T02:47:07.079Z,97615.25
2023-04-10T02:49:34.952Z,97611.53
2023-04-10T02:52:01.629Z,97611.53
2023-04-10T02:54:28.057Z,97616.97
2023-04-10T02:56:54.420Z,97615.63
2023-04-10T02:59:20.750Z,97612.31
2023-04-10T03:01:47.514Z,97613.34
2023-04-10T03:04:14.021Z,97607.00
2023-04-10T03:06:40.775Z,97609.16
2023-04-10T03:09:08.189Z,97612.50
2023-04-10T03:11:34.509Z,97606.75
2023-04-10T03:14:01.067Z,97609.53
2023-04-10T03:16:27.466Z,97614.38
2023-04-10T03:18:53.868Z,97607.78
2023-04-10T03:21:20.231Z,97612.50
2023-04-10T03:23:46.557Z,97602.53
2023-04-10T03:26:13.131Z,97598.28
2023-04-10T03:28:39.845Z,97601.88
2023-04-10T03:31:06.504Z,97598.41
2023-04-10T03:33:32.962Z,97596.72
2023-04-10T03:36:01.329Z,97597.91
2023-04-10T03:38:27.705Z,97594.84
2023-04-10T03:41:01.916Z,97594.03
2023-04-10T03:43:29.375Z,97603.66
2023-04-10T03:45:55.945Z,97593.38
2023-04-10T03:48:22.388Z,97597.72
2023-04-10T03:50:48.763Z,97603.56
2023-04-10T03:53:16.111Z,97603.47
2023-04-10T03:55:42.463Z,97599.75
2023-04-10T03:58:08.840Z,97602.00
2023-04-10T04:00:35.279Z,97605.75
2023-04-10T04:03:03.227Z,97604.75
2023-04-10T04:05:30.831Z,97610.78
2023-04-10T04:07:57.236Z,97614.19
2023-04-10T04:10:24.207Z,97622.72
2023-04-10T04:12:50.719Z,97622.81
2023-04-10T04:15:17.044Z,97616.22
2023-04-10T04:17:43.441Z,97617.72
2023-04-10T04:20:10.387Z,97621.88
2023-04-10T04:22:37.218Z,97622.25
2023-04-10T04:25:07.958Z,97625.94
2023-04-10T04:27:34.288Z,97620.84
2023-04-10T04:30:00.896Z,97628.63
2023-04-10T04:32:27.346Z,97629.63
2023-04-10T04:34:53.676Z,97645.25
2023-04-10T04:37:20.003Z,97640.78
2023-04-10T04:39:46.352Z,97649.84
2023-04-10T04:42:12.895Z,97648.00
2023-04-10T04:44:39.262Z,97661.13
2023-04-10T04:47:06.201Z,97660.03
2023-04-10T04:49:32.575Z,97657.06
2023-04-10T04:51:58.913Z,97653.44
2023-04-10T04:54:25.246Z,97662.59
2023-04-10T04:56:51.584Z,97655.50
2023-04-10T04:59:18.070Z,97654.97
2023-04-10T05:01:44.570Z,97647.66
2023-04-10T05:04:11.465Z,97650.34
2023-04-10T05:06:38.049Z,97645.31
2023-04-10T05:09:04.422Z,97642.28
2023-04-10T05:11:30.741Z,97648.22
2023-04-10T05:13:57.059Z,97641.97
2023-04-10T05:16:23.799Z,97643.34
2023-04-10T05:18:50.295Z,97640.19
2023-04-10T05:21:16.746Z,97643.53
2023-04-10T05:23:43.097Z,97645.44
2023-04-10T05:26:11.202Z,97650.81
2023-04-10T05:28:37.581Z,97655.31
2023-04-10T05:31:04.044Z,97658.22
2023-04-10T05:33:30.391Z,97651.81
2023-04-10T05:35:56.779Z,97654.06
2023-04-10T05:38:23.175Z,97650.16
2023-04-10T05:40:49.500Z,97654.25
2023-04-10T05:43:15.829Z,97645.72
2023-04-10T05:45:45.433Z,97644.84
2023-04-10T05:48:11.775Z,97644.56
2023-04-10T05:50:38.125Z,97640.63
2023-04-10T05:53:04.531Z,97641.72
2023-04-10T05:55:31.233Z,97633.53
2023-04-10T05:57:57.734Z,97638.75
2023-04-10T06:00:24.109Z,97642.34
2023-04-10T06:02:50.981Z,97637.00
2023-04-10T06:05:17.708Z,97638.09
2023-04-10T06:07:44.154Z,97635.38
2023-04-10T06:10:10.828Z,97638.22
2023-04-10T06:12:37.237Z,97634.94
2023-04-10T06:15:03.829Z,97625.06
2023-04-10T06:17:30.876Z,97624.16
2023-04-10T06:19:59.498Z,97626.44
2023-04-10T06:22:26.784Z,97625.34
2023-04-10T06:24:53.113Z,97623.34
2023-04-10T06:27:19.539Z,97612.34
2023-04-10T06:29:46.093Z,97606.91
2023-04-10T06:32:12.440Z,97611.03
2023-04-10T06:34:38.784Z,97604.38
2023-04-10T06:37:05.313Z,97607.31
2023-04-10T06:39:31.670Z,97611.75
2023-04-10T06:41:58.167Z,97609.91
2023-04-10T06:44:24.499Z,97596.88
2023-04-10T06:46:50.890Z,97599.84
2023-04-10T06:49:17.277Z,97609.13
2023-04-10T06:51:45.750Z,97603.41
2023-04-10T06:54:15.191Z,97593.97
2023-04-10T06:56:42.040Z,97599.19
2023-04-10T06:59:08.367Z,97597.69
2023-04-10T07:01:35.866Z,97597.72
2023-04-10T07:04:02.476Z,97594.75
2023-04-10T07:06:29.011Z,97599.19
2023-04-10T07:08:55.676Z,97595.38
2023-04-10T07:11:22.211Z,97593.75
2023-04-10T07:13:48.787Z,97592.25
2023-04-10T07:16:17.004Z,97587.78
2023-04-10T07:18:44.659Z,97588.31
2023-04-10T07:21:13.301Z,97593.41
2023-04-10T07:23:39.778Z,97593.44
2023-04-10T07:26:06.348Z,97592.09
2023-04-10T07:28:33.848Z,97590.41
2023-04-10T07:31:00.182Z,97587.78
2023-04-10T07:33:27.135Z,97577.75
2023-04-10T07:35:53.952Z,97584.13
2023-04-10T07:38:21.352Z,97582.00
2023-04-10T07:40:47.755Z,97588.16
2023-04-10T07:43:14.124Z,97583.13
2023-04-10T07:45:41.073Z,97577.34
2023-04-10T07:48:07.785Z,97575.81
2023-04-10T07:50:34.208Z,97580.88
2023-04-10T07:53:03.574Z,97572.63
2023-04-10T07:55:29.959Z,97579.97
2023-04-10T07:57:56.291Z,97580.53
2023-04-10T08:00:22.612Z,97577.09
2023-04-10T08:02:49.155Z,97567.44
2023-04-10T08:05:15.731Z,97578.19
2023-04-10T08:07:42.273Z,97567.75
2023-04-10T08:10:08.973Z,97567.91
2023-04-10T08:12:36.105Z,97568.56
2023-04-10T08:15:02.520Z,97558.22
2023-04-10T08:17:28.903Z,97557.75
2023-04-10T08:19:55.783Z,97554.97
2023-04-10T08:22:22.209Z,97556.06
2023-04-10T08:24:48.582Z,97570.25
2023-04-10T08:27:16.274Z,97558.69
2023-04-10T08:29:42.928Z,97556.59
2023-04-10T08:32:09.261Z,97550.81
2023-04-10T08:34:35.699Z,97549.00
2023-04-10T08:37:05.309Z,97537.47
2023-04-10T08:39:31.707Z,97539.56
2023-04-10T08:41:58.054Z,97551.19
2023-04-10T08:44:24.447Z,97541.34
2023-04-10T08:46:51.867Z,97539.53
2023-04-10T08:49:24.324Z,97540.25
2023-04-10T08:51:56.229Z,97530.41
2023-04-10T08:54:29.393Z,97534.69
2023-04-10T08:56:56.312Z,97537.25
2023-04-10T08:59:22.801Z,97538.25
2023-04-10T09:01:49.408Z,97537.41
2023-04-10T09:04:17.879Z,97533.31
2023-04-10T09:06:44.442Z,97522.69
2023-04-10T09:09:10.840Z,97522.69
2023-04-10T09:11:52.730Z,97515.28
2023-04-10T09:14:23.338Z,97514.09
2023-04-10T09:16:51.446Z,97520.44
2023-04-10T09:19:38.162Z,97518.09
2023-04-10T09:22:05.306Z,97515.84
2023-04-10T09:24:36.229Z,97511.16
2023-04-10T09:27:02.703Z,97515.06
2023-04-10T09:29:38.803Z,97528.22
2023-04-10T09:32:05.159Z,97523.25
2023-04-10T09:34:31.564Z,97520.81
2023-04-10T09:36:58.735Z,97508.97
2023-04-10T09:39:35.448Z,97526.84
2023-04-10T09:42:02.168Z,97511.66
2023-04-10T09:44:31.138Z,97505.19
2023-04-10T09:47:20.717Z,97512.31
2023-04-10T09:49:52.212Z,97520.00
2023-04-10T09:52:19.794Z,97508.81
2023-04-10T09:54:47.245Z,97495.25
2023-04-10T09:57:15.916Z,97486.91
2023-04-10T09:59:44.768Z,97496.94
2023-04-10T10:02:12.999Z,97497.91
2023-04-10T10:04:41.293Z,97485.28
2023-04-10T10:07:07.914Z,97484.53
2023-04-10T10:09:35.395Z,97483.72
2023-04-10T10:12:03.178Z,97477.91
2023-04-10T10:14:30.205Z,97469.81
2023-04-10T10:16:57.434Z,97471.34
2023-04-10T10:19:53.352Z,97468.56
2023-04-10T10:22:20.683Z,97466.13
2023-04-10T10:24:47.663Z,97456.69
2023-04-10T10:27:15.546Z,97454.69
2023-04-10T10:29:44.135Z,97447.03
2023-04-10T10:32:11.417Z,97448.69
2023-04-10T10:34:38.363Z,97436.84
2023-04-10T10:37:05.832Z,97439.13
2023-04-10T10:39:44.900Z,97443.22
2023-04-10T10:42:18.627Z,97419.88
2023-04-10T10:44:48.872Z,97427.03
2023-04-10T10:47:19.769Z,97416.63
2023-04-10T10:49:59.288Z,97423.84
2023-04-10T10:52:45.192Z,97426.59
2023-04-10T10:55:32.148Z,97420.84
2023-04-10T10:58:00.422Z,97418.34
2023-04-10T11:00:27.956Z,97410.56
2023-04-10T11:03:10.662Z,97408.25
2023-04-10T11:05:49.233Z,97403.75
2023-04-10T11:08:15.646Z,97394.13
2023-04-10T11:11:07.245Z,97394.50
2023-04-10T11:13:35.045Z,97392.75
2023-04-10T11:16:02.923Z,97393.91
2023-04-10T11:18:44.724Z,97394.34
2023-04-10T11:21:12.134Z,97391.13
2023-04-10T11:23:39.176Z,97381.28
2023-04-10T11:26:06.350Z,97381.63
2023-04-10T11:28:33.008Z,97379.28
2023-04-10T11:31:19.542Z,97385.34
2023-04-10T11:33:47.130Z,97375.38
2023-04-10T11:36:14.744Z,97373.72
2023-04-10T11:38:41.252Z,97377.09
2023-04-10T11:41:07.609Z,97376.94
2023-04-10T11:43:35.124Z,97374.03
2023-04-10T11:46:06.168Z,97377.81
2023-04-10T11:48:33.163Z,97364.88
2023-04-10T11:51:01.676Z,97356.41
2023-04-10T11:53:29.981Z,97360.28
2023-04-10T11:55:56.780Z,97352.06
2023-04-10T11:58:24.088Z,97355.91
2023-04-10T12:01:00.629Z,97345.50
2023-04-10T12:03:37.733Z,97350.28
2023-04-10T12:06:04.658Z,97340.91
2023-04-10T12:08:31.662Z,97331.94
2023-04-10T12:10:58.270Z,97334.59
2023-04-10T12:13:25.475Z,97332.56
2023-04-10T12:15:52.019Z,97332.91
2023-04-10T12:18:18.671Z,97329.97
2023-04-10T12:20:45.048Z,97341.06
2023-04-10T12:23:11.603Z,97328.50
2023-04-10T12:25:39.255Z,97324.91
2023-04-10T12:28:05.573Z,97326.88
2023-04-10T12:30:31.930Z,97319.41
2023-04-10T12:32:58.403Z,97313.81
2023-04-10T12:35:40.268Z,97314.00
2023-04-10T12:38:06.652Z,97315.13
2023-04-10T12:40:33.405Z,97306.06
2023-04-10T12:42:59.713Z,97305.84
2023-04-10T12:45:43.089Z,97293.63
2023-04-10T12:48:09.454Z,97292.84
2023-04-10T12:50:46.091Z,97296.00
2023-04-10T12:53:14.156Z,97295.31
2023-04-10T12:55:42.386Z,97288.72
2023-04-10T12:58:18.524Z,97288.13
2023-04-10T13:00:45.820Z,97285.94
2023-04-10T13:03:12.424Z,97285.97
2023-04-10T13:05:39.415Z,97279.00
2023-04-10T13:08:05.811Z,97275.72
2023-04-10T13:10:32.373Z,97267.84
2023-04-10T13:12:59.692Z,97266.75
2023-04-10T13:15:26.085Z,97261.34
2023-04-10T13:17:52.425Z,97259.69
2023-04-10T13:20:19.261Z,97249.16
2023-04-10T13:22:45.629Z,97250.88
2023-04-10T13:25:12.100Z,97241.06
2023-04-10T13:27:38.589Z,97232.13
2023-04-10T13:30:05.326Z,97235.00
2023-04-10T13:32:31.707Z,97236.00
2023-04-10T13:34:58.044Z,97230.25
2023-04-10T13:37:24.488Z,97226.84
2023-04-10T13:39:50.880Z,97219.97
2023-04-10T13:42:17.210Z,97213.34
2023-04-10T13:44:43.546Z,97205.00
2023-04-10T13:47:09.967Z,97195.81
2023-04-10T13:49:36.434Z,97194.56
2023-04-10T13:52:02.774Z,97190.28
2023-04-10T13:54:29.088Z,97186.25
2023-04-10T13:56:56.063Z,97180.41
2023-04-10T13:59:22.418Z,97185.06
2023-04-10T14:01:50.958Z,97183.03
2023-04-10T14:04:17.411Z,97185.47
2023-04-10T14:06:43.804Z,97177.50
2023-04-10T14:09:10.184Z,97182.09
2023-04-10T14:11:36.529Z,97189.50
2023-04-10T14:14:02.859Z,97183.34
2023-04-10T14:16:29.275Z,97176.53
2023-04-10T14:18:55.878Z,97165.78
2023-04-10T14:21:22.361Z,97159.63
2023-04-10T14:23:48.685Z,97151.31
2023-04-10T14:26:15.022Z,97157.31
2023-04-10T14:28:42.315Z,97150.06
2023-04-10T14:31:08.673Z,97149.75
2023-04-10T14:33:35.395Z,97136.41
2023-04-10T14:36:01.782Z,97131.69
2023-04-10T14:38:28.239Z,97138.91
2023-04-10T14:40:54.580Z,97136.22
2023-04-10T14:43:20.933Z,97134.72
2023-04-10T14:45:47.246Z,97134.75
2023-04-10T14:48:13.815Z,97130.81
2023-04-10T14:50:40.557Z,97132.03
2023-04-10T14:53:09.590Z,97131.47
2023-04-10T14:55:36.874Z,97128.81
2023-04-10T14:58:03.952Z,97119.00
2023-04-10T15:00:30.431Z,97129.69
2023-04-10T15:02:59.708Z,97128.63
2023-04-10T15:05:26.752Z,97111.31
2023-04-10T15:07:53.388Z,97109.78
2023-04-10T15:10:19.714Z,97107.81
2023-04-10T15:12:46.037Z,97103.31
2023-04-10T15:15:12.401Z,97101.59
2023-04-10T15:17:39.209Z,97093.41
2023-04-10T15:20:05.904Z,97087.97
2023-04-10T15:22:32.399Z,97089.00
2023-04-10T15:24:58.807Z,97090.50
2023-04-10T15:27:25.273Z,97084.25
2023-04-10T15:29:51.595Z,97082.13
2023-04-10T15:32:17.964Z,97078.00
2023-04-10T15:34:44.401Z,97090.13
2023-04-10T15:37:11.588Z,97087.34
2023-04-10T15:39:38.039Z,97075.66
2023-04-10T15:42:08.288Z,97067.75
2023-04-10T15:44:34.739Z,97071.00
2023-04-10T15:47:01.167Z,97071.34
2023-04-10T15:49:37.206Z,97062.72
2023-04-10T15:52:05.354Z,97063.22
2023-04-10T15:54:33.019Z,97056.56
2023-04-10T15:56:59.371Z,97052.59
2023-04-10T15:59:25.709Z,97055.75
2023-04-10T16:01:52.130Z,97056.34
2023-04-10T16:04:18.579Z,97051.78
2023-04-10T16:06:45.064Z,97048.41
2023-04-10T16:09:24.866Z,97044.75
2023-04-10T16:11:52.415Z,97049.34
2023-04-10T16:14:19.111Z,97042.47
2023-04-10T16:16:45.708Z,97036.91
2023-04-10T16:19:12.098Z,97043.06
2023-04-10T16:21:38.438Z,97040.72
2023-04-10T16:24:04.927Z,97031.19
2023-04-10T16:26:31.261Z,97029.94
2023-04-10T16:28:57.624Z,97025.13
2023-04-10T16:31:24.275Z,97019.91
2023-04-10T16:33:50.747Z,97020.19
2023-04-10T16:36:17.502Z,97019.84
2023-04-10T16:38:44.562Z,97019.00
2023-04-10T16:41:12.388Z,97021.25
2023-04-10T16:43:39.192Z,97024.94
2023-04-10T16:46:05.849Z,97025.59
2023-04-10T16:48:34.281Z,97017.28
2023-04-10T16:51:06.128Z,97009.88
2023-04-10T16:53:32.899Z,97016.66
2023-04-10T16:56:01.533Z,97006.50
2023-04-10T16:58:29.988Z,97004.59
2023-04-10T17:00:56.430Z,97015.63
2023-04-10T17:03:22.794Z,97009.72
2023-04-10T17:05:49.187Z,97003.38
2023-04-10T17:08:15.616Z,97009.41
2023-04-10T17:10:41.953Z,97009.00
2023-04-10T17:13:08.306Z,97007.06
2023-04-10T17:15:35.509Z,97011.19
2023-04-10T17:18:01.927Z,97001.41
2023-04-10T17:20:28.385Z,97007.50
2023-04-10T17:22:54.719Z,97004.81
2023-04-10T17:25:21.052Z,97003.31
2023-04-10T17:27:47.385Z,96989.41
2023-04-10T17:30:14.012Z,96986.06
2023-04-10T17:32:41.786Z,96986.72
2023-04-10T17:35:08.298Z,96989.00
2023-04-10T17:37:34.645Z,96980.88
2023-04-10T17:40:01.472Z,96979.91
2023-04-10T17:42:27.814Z,96979.09
2023-04-10T17:44:54.284Z,96970.72
2023-04-10T17:47:20.730Z,96978.91
2023-04-10T17:49:47.154Z,96970.09
2023-04-10T17:52:13.484Z,96970.91
2023-04-10T17:54:39.949Z,96972.53
2023-04-10T17:57:06.424Z,96967.94
2023-04-10T17:59:32.743Z,96956.66
2023-04-10T18:01:59.160Z,96959.28
2023-04-10T18:04:25.647Z,96961.00
2023-04-10T18:06:52.021Z,96956.06
2023-04-10T18:09:18.346Z,96963.25
2023-04-10T18:11:44.843Z,96957.41
2023-04-10T18:14:11.203Z,96963.91
2023-04-10T18:16:37.596Z,96963.63
2023-04-10T18:19:04.122Z,96967.59
2023-04-10T18:21:31.708Z,96962.72
2023-04-10T18:23:58.054Z,96962.59
2023-04-10T18:26:24.471Z,96962.59
2023-04-10T18:28:50.926Z,96954.28
2023-04-10T18:31:19.089Z,96948.72
2023-04-10T18:33:48.583Z,96947.97
2023-04-10T18:36:24.157Z,96946.47
2023-04-10T18:38:51.322Z,96946.31
2023-04-10T18:41:17.758Z,96945.13
2023-04-10T18:43:48.690Z,96943.66
2023-04-10T18:46:20.533Z,96944.63
2023-04-10T18:48:50.227Z,96944.53
2023-04-10T18:51:16.709Z,96945.91
2023-04-10T18:53:43.108Z,96944.59
2023-04-10T18:56:09.454Z,96941.88
2023-04-10T18:58:35.785Z,96940.25
2023-04-10T19:01:02.298Z,96941.69
2023-04-10T19:03:28.864Z,96944.47
2023-04-10T19:05:55.578Z,96936.53
2023-04-10T19:08:21.953Z,96932.22
2023-04-10T19:10:48.342Z,96922.78
2023-04-10T19:13:14.779Z,96914.78
2023-04-10T19:15:41.699Z,96914.91
2023-04-10T19:18:09.013Z,96913.34
2023-04-10T19:20:52.259Z,96895.16
2023-04-10T19:23:20.441Z,96888.94
2023-04-10T19:25:47.063Z,96896.38
2023-04-10T19:28:13.435Z,96894.38
2023-04-10T19:30:39.834Z,96895.59
2023-04-10T19:33:06.275Z,96892.31
2023-04-10T19:35:32.661Z,96885.94
2023-04-10T19:37:59.062Z,96873.50
2023-04-10T19:40:25.480Z,96870.72
2023-04-10T19:42:52.122Z,96879.09
2023-04-10T19:45:18.599Z,96883.03
2023-04-10T19:47:44.940Z,96886.44
2023-04-10T19:50:11.314Z,96881.84
2023-04-10T19:52:37.858Z,96878.63
2023-04-10T19:55:05.250Z,96872.09
2023-04-10T19:57:31.958Z,96871.75
2023-04-10T19:59:58.850Z,96878.66
2023-04-10T20:02:25.406Z,96871.84
2023-04-10T20:04:51.994Z,96872.53
2023-04-10T20:07:18.354Z,96875.06
2023-04-10T20:09:44.703Z,96879.19
2023-04-10T20:12:11.300Z,96876.41
2023-04-10T20:14:38.498Z,96870.16
2023-04-10T20:17:04.948Z,96873.94
2023-04-10T20:19:31.315Z,96858.25
2023-04-10T20:21:59.204Z,96854.97
2023-04-10T20:24:27.170Z,96854.19
2023-04-10T20:26:53.495Z,96862.06
2023-04-10T20:29:19.868Z,96864.66
2023-04-10T20:31:46.261Z,96858.13
2023-04-10T20:34:12.583Z,96857.31
2023-04-10T20:36:38.912Z,96850.09
2023-04-10T20:39:05.484Z,96849.78
2023-04-10T20:41:32.214Z,96843.72
2023-04-10T20:43:59.546Z,96826.69
2023-04-10T20:46:27.442Z,96808.34
2023-04-10T20:48:55.700Z,96823.91
2023-04-10T20:51:22.329Z,96839.47
2023-04-10T20:53:48.696Z,96840.94
2023-04-10T20:56:15.441Z,96844.03
2023-04-10T20:58:41.782Z,96842.91
2023-04-10T21:01:09.576Z,96838.31
2023-04-10T21:03:36.427Z,96833.72
2023-04-10T21:06:03.627Z,96825.06
2023-04-10T21:08:30.098Z,96825.84
2023-04-10T21:10:58.800Z,96821.94
2023-04-10T21:13:25.459Z,96826.19
2023-04-10T21:15:51.806Z,96815.88
2023-04-10T21:18:18.169Z,96826.84
2023-04-10T21:20:44.766Z,96818.31
2023-04-10T21:23:11.096Z,96813.75
2023-04-10T21:25:38.485Z,96818.00
2023-04-10T21:28:04.943Z,96806.84
2023-04-10T21:30:31.271Z,96800.13
2023-04-10T21:32:57.871Z,96792.94
2023-04-10T21:35:24.785Z,96789.94
2023-04-10T21:37:56.545Z,96794.88
2023-04-10T21:40:24.643Z,96791.91
2023-04-10T21:42:51.589Z,96807.34
2023-04-10T21:45:17.938Z,96814.38
2023-04-10T21:47:44.305Z,96813.22
2023-04-10T21:50:10.854Z,96804.88
2023-04-10T21:52:37.223Z,96805.56
2023-04-10T21:55:05.669Z,96790.16
2023-04-10T21:57:32.605Z,96770.31
2023-04-10T21:59:58.978Z,96764.56
2023-04-10T22:02:25.636Z,96759.84
2023-04-10T22:04:54.745Z,96760.84
2023-04-10T22:07:21.397Z,96754.41
2023-04-10T22:09:47.803Z,96748.38
2023-04-10T22:12:14.150Z,96755.75
2023-04-10T22:14:41.363Z,96753.47
2023-04-10T22:17:07.816Z,96754.44
2023-04-10T22:19:34.420Z,96752.00
2023-04-10T22:22:00.820Z,96743.66
2023-04-10T22:24:27.431Z,96739.38
2023-04-10T22:26:53.743Z,96740.03
2023-04-10T22:29:20.099Z,96722.47
2023-04-10T22:31:46.593Z,96717.22
2023-04-10T22:34:12.918Z,96714.13
2023-04-10T22:36:40.327Z,96709.78
2023-04-10T22:39:06.644Z,96710.81
2023-04-10T22:41:33.056Z,96713.28
2023-04-10T22:43:59.515Z,96712.50
2023-04-10T22:46:26.137Z,96711.81
2023-04-10T22:48:53.434Z,96715.41
2023-04-10T22:51:20.184Z,96714.25
2023-04-10T22:53:47.125Z,96716.22
2023-04-10T22:56:13.554Z,96713.09
2023-04-10T22:58:40.417Z,96710.69
2023-04-10T23:01:06.987Z,96709.19
2023-04-10T23:03:33.692Z,96698.88
2023-04-10T23:06:00.150Z,96698.09
2023-04-10T23:08:26.867Z,96697.09
2023-04-10T23:10:53.831Z,96686.94
2023-04-10T23:13:20.596Z,96672.22
2023-04-10T23:15:53.964Z,96668.44
2023-04-10T23:18:20.541Z,96659.09
2023-04-10T23:20:47.391Z,96651.84
2023-04-10T23:23:13.988Z,96646.25
2023-04-10T23:25:40.417Z,96644.75
2023-04-10T23:28:07.026Z,96639.06
2023-04-10T23:30:33.457Z,96629.06
2023-04-10T23:32:59.880Z,96621.38
2023-04-10T23:35:26.845Z,96615.91
2023-04-10T23:37:53.535Z,96611.69
2023-04-10T23:40:21.192Z,96611.75
2023-04-10T23:42:47.797Z,96607.53
2023-04-10T23:45:14.146Z,96605.78
2023-04-10T23:47:40.944Z,96606.34
2023-04-10T23:50:08.174Z,96604.28
2023-04-10T23:52:34.492Z,96589.91
2023-04-10T23:55:00.811Z,96581.91
2023-04-10T23:57:27.126Z,96572.81
2023-04-10T23:59:53.448Z,96571.41
